createdAt,value
2018-04-01T00:00:06.633Z,11.67
2018-04-01T00:01:06.657Z,11.57
2018-04-01T00:02:06.678Z,11.57
2018-04-01T00:03:06.697Z,11.64
2018-04-01T00:04:06.715Z,11.72
2018-04-01T00:05:06.732Z,11.67
2018-04-01T00:06:06.740Z,11.67
2018-04-01T00:07:06.767Z,11.53
2018-04-01T00:08:06.782Z,11.41
2018-04-01T00:09:06.810Z,11.32
2018-04-01T00:10:06.832Z,11.41
2018-04-01T00:11:06.833Z,11.54
2018-04-01T00:12:06.865Z,11.32
2018-04-01T00:13:06.873Z,11.41
2018-04-01T00:14:06.900Z,11.34
2018-04-01T00:15:06.911Z,11.34
2018-04-01T00:16:06.928Z,11.29
2018-04-01T00:17:06.944Z,11.27
2018-04-01T00:18:06.987Z,11.27
2018-04-01T00:19:06.993Z,11.32
2018-04-01T00:20:06.999Z,11.39
2018-04-01T00:21:07.019Z,11.44
2018-04-01T00:22:07.047Z,11.38
2018-04-01T00:23:07.061Z,11.41
2018-04-01T00:24:07.072Z,11.39
2018-04-01T00:25:07.092Z,11.25
2018-04-01T00:26:07.111Z,11.31
2018-04-01T00:27:07.139Z,11.16
2018-04-01T00:28:07.155Z,11.24
2018-04-01T00:29:07.166Z,11.25
2018-04-01T00:30:07.183Z,11.21
2018-04-01T00:31:07.204Z,11.03
2018-04-01T00:32:07.224Z,11.29
2018-04-01T00:33:07.237Z,11.02
2018-04-01T00:34:07.283Z,11.11
2018-04-01T00:35:07.271Z,11.03
2018-04-01T00:36:07.298Z,10.94
2018-04-01T00:37:07.323Z,11.02
2018-04-01T00:38:07.331Z,11.11
2018-04-01T00:39:07.348Z,11.02
2018-04-01T00:40:07.372Z,10.81
2018-04-01T00:41:07.387Z,10.96
2018-04-01T00:42:07.408Z,11.24
2018-04-01T00:43:07.423Z,11.21
2018-04-01T00:44:07.450Z,11.03
2018-04-01T00:45:07.462Z,10.88
2018-04-01T00:46:07.475Z,10.66
2018-04-01T00:47:07.498Z,10.73
2018-04-01T00:48:07.511Z,10.86
2018-04-01T00:49:07.528Z,10.63
2018-04-01T00:50:07.551Z,10.44
2018-04-01T00:51:07.566Z,10.36
2018-04-01T00:52:07.587Z,10.34
2018-04-01T00:53:07.612Z,10.52
2018-04-01T00:54:07.621Z,10.65
2018-04-01T00:55:07.635Z,10.86
2018-04-01T00:56:07.656Z,10.52
2018-04-01T00:57:07.676Z,10.51
2018-04-01T00:58:07.690Z,10.40
2018-04-01T00:59:07.714Z,10.62
2018-04-01T01:00:07.735Z,10.70
2018-04-01T01:01:07.748Z,10.47
2018-04-01T01:02:07.771Z,10.56
2018-04-01T01:03:07.786Z,10.71
2018-04-01T01:04:07.801Z,10.70
2018-04-01T01:05:07.819Z,10.77
2018-04-01T01:06:07.838Z,10.77
2018-04-01T01:07:07.872Z,10.62
2018-04-01T01:08:07.871Z,10.58
2018-04-01T01:09:07.891Z,10.66
2018-04-01T01:10:07.911Z,10.68
2018-04-01T01:11:07.937Z,10.83
2018-04-01T01:12:07.947Z,10.84
2018-04-01T01:13:07.965Z,10.76
2018-04-01T01:14:07.986Z,10.99
2018-04-01T01:15:08.002Z,10.59
2018-04-01T01:16:08.019Z,10.70
2018-04-01T01:17:08.034Z,10.62
2018-04-01T01:18:08.052Z,10.73
2018-04-01T01:19:08.084Z,10.76
2018-04-01T01:20:08.099Z,10.88
2018-04-01T01:21:08.108Z,10.91
2018-04-01T01:22:08.123Z,10.74
2018-04-01T01:23:08.149Z,10.68
2018-04-01T01:24:08.163Z,10.92
2018-04-01T01:25:08.180Z,10.68
2018-04-01T01:26:08.194Z,10.73
2018-04-01T01:27:08.216Z,10.88
2018-04-01T01:28:08.251Z,10.65
2018-04-01T01:29:08.260Z,10.74
2018-04-01T01:30:08.267Z,10.68
2018-04-01T01:31:08.289Z,10.56
2018-04-01T01:32:08.304Z,10.65
2018-04-01T01:33:08.337Z,10.81
2018-04-01T01:34:08.341Z,10.73
2018-04-01T01:35:08.358Z,10.73
2018-04-01T01:36:08.377Z,10.77
2018-04-01T01:37:08.418Z,10.70
2018-04-01T01:38:08.415Z,10.83
2018-04-01T01:39:08.434Z,10.44
2018-04-01T01:40:08.455Z,10.46
2018-04-01T01:41:08.471Z,10.60
2018-04-01T01:42:08.486Z,10.68
2018-04-01T01:43:08.505Z,10.68
2018-04-01T01:44:08.529Z,10.44
2018-04-01T01:45:08.536Z,10.55
2018-04-01T01:46:08.556Z,10.51
2018-04-01T01:47:08.584Z,10.53
2018-04-01T01:48:08.599Z,10.63
2018-04-01T01:49:08.621Z,10.76
2018-04-01T01:50:08.632Z,10.56
2018-04-01T01:51:08.669Z,10.59
2018-04-01T01:52:08.665Z,10.59
2018-04-01T01:53:08.726Z,10.70
2018-04-01T01:54:08.704Z,10.68
2018-04-01T01:55:08.723Z,10.65
2018-04-01T01:56:08.781Z,10.59
2018-04-01T01:57:08.763Z,10.56
2018-04-01T01:58:08.778Z,10.58
2018-04-01T01:59:08.800Z,10.60
2018-04-01T02:00:08.819Z,10.55
2018-04-01T02:01:08.829Z,10.46
2018-04-01T02:02:08.846Z,10.33
2018-04-01T02:03:08.865Z,10.34
2018-04-01T02:04:08.903Z,10.30
2018-04-01T02:05:08.914Z,10.28
2018-04-01T02:06:08.920Z,10.32
2018-04-01T02:07:08.939Z,10.33
2018-04-01T02:08:09.024Z,10.22
2018-04-01T02:09:08.973Z,10.42
2018-04-01T02:10:08.994Z,10.18
2018-04-01T02:11:09.005Z,10.15
2018-04-01T02:12:09.026Z,10.12
2018-04-01T02:13:09.045Z,10.14
2018-04-01T02:14:09.064Z,10.12
2018-04-01T02:15:09.084Z,10.09
2018-04-01T02:16:09.115Z,9.91
2018-04-01T02:17:09.128Z,9.78
2018-04-01T02:18:09.136Z,9.96
2018-04-01T02:19:09.151Z,10.14
2018-04-01T02:20:09.172Z,9.93
2018-04-01T02:21:09.181Z,10.06
2018-04-01T02:22:09.222Z,10.36
2018-04-01T02:23:09.240Z,10.12
2018-04-01T02:24:09.238Z,9.97
2018-04-01T02:25:09.256Z,10.07
2018-04-01T02:26:09.273Z,9.96
2018-04-01T02:27:09.300Z,10.00
2018-04-01T02:28:09.307Z,9.76
2018-04-01T02:29:09.318Z,9.86
2018-04-01T02:30:09.340Z,9.91
2018-04-01T02:31:09.385Z,9.86
2018-04-01T02:32:09.388Z,9.83
2018-04-01T02:33:09.413Z,9.68
2018-04-01T02:34:09.416Z,9.63
2018-04-01T02:35:09.468Z,9.73
2018-04-01T02:36:09.446Z,9.73
2018-04-01T02:37:09.462Z,9.64
2018-04-01T02:38:09.497Z,9.82
2018-04-01T02:39:09.500Z,9.66
2018-04-01T02:40:09.512Z,9.83
2018-04-01T02:41:09.530Z,9.76
2018-04-01T02:42:09.561Z,9.94
2018-04-01T02:43:09.569Z,9.78
2018-04-01T02:44:09.598Z,9.78
2018-04-01T02:45:09.597Z,9.76
2018-04-01T02:46:09.623Z,9.85
2018-04-01T02:47:09.652Z,9.96
2018-04-01T02:48:09.704Z,9.93
2018-04-01T02:49:09.667Z,9.70
2018-04-01T02:50:09.684Z,9.78
2018-04-01T02:51:09.703Z,9.70
2018-04-01T02:52:09.720Z,9.82
2018-04-01T02:53:09.735Z,9.82
2018-04-01T02:54:09.809Z,9.93
2018-04-01T02:55:09.792Z,9.81
2018-04-01T02:56:09.802Z,9.85
2018-04-01T02:57:09.802Z,9.94
2018-04-01T02:58:09.832Z,9.93
2018-04-01T02:59:09.842Z,9.94
2018-04-01T03:00:09.854Z,9.83
2018-04-01T03:01:09.877Z,9.64
2018-04-01T03:02:09.887Z,9.67
2018-04-01T03:03:09.911Z,9.73
2018-04-01T03:04:09.932Z,9.83
2018-04-01T03:05:09.946Z,9.66
2018-04-01T03:06:09.961Z,9.73
2018-04-01T03:07:09.976Z,9.85
2018-04-01T03:08:09.995Z,9.83
2018-04-01T03:09:10.124Z,9.60
2018-04-01T03:10:10.032Z,9.81
2018-04-01T03:11:10.103Z,9.88
2018-04-01T03:12:10.065Z,9.57
2018-04-01T03:13:10.078Z,9.49
2018-04-01T03:14:10.102Z,9.56
2018-04-01T03:15:10.127Z,9.60
2018-04-01T03:16:10.129Z,9.68
2018-04-01T03:17:10.145Z,9.52
2018-04-01T03:18:10.177Z,9.50
2018-04-01T03:19:10.190Z,9.70
2018-04-01T03:20:10.201Z,9.76
2018-04-01T03:21:10.305Z,9.71
2018-04-01T03:22:10.235Z,9.78
2018-04-01T03:23:10.254Z,9.89
2018-04-01T03:24:10.266Z,9.82
2018-04-01T03:25:10.285Z,9.61
2018-04-01T03:26:10.305Z,9.83
2018-04-01T03:27:10.321Z,9.79
2018-04-01T03:28:10.340Z,9.78
2018-04-01T03:29:10.367Z,9.66
2018-04-01T03:30:10.375Z,9.64
2018-04-01T03:31:10.390Z,9.68
2018-04-01T03:32:10.412Z,9.67
2018-04-01T03:33:10.424Z,9.64
2018-04-01T03:34:10.441Z,9.35
2018-04-01T03:35:10.469Z,9.66
2018-04-01T03:36:10.477Z,9.68
2018-04-01T03:37:10.491Z,9.67
2018-04-01T03:38:10.516Z,9.73
2018-04-01T03:39:10.550Z,9.49
2018-04-01T03:40:10.544Z,9.67
2018-04-01T03:41:10.565Z,9.85
2018-04-01T03:42:10.583Z,9.94
2018-04-01T03:43:10.595Z,9.76
2018-04-01T03:44:10.634Z,9.68
2018-04-01T03:45:10.639Z,9.64
2018-04-01T03:46:10.647Z,9.75
2018-04-01T03:47:10.664Z,9.91
2018-04-01T03:48:10.694Z,9.66
2018-04-01T03:49:10.716Z,9.68
2018-04-01T03:50:10.730Z,9.79
2018-04-01T03:51:10.733Z,9.91
2018-04-01T03:52:10.751Z,9.89
2018-04-01T03:53:10.772Z,9.73
2018-04-01T03:54:10.794Z,9.85
2018-04-01T03:55:10.817Z,9.68
2018-04-01T03:56:10.830Z,9.78
2018-04-01T03:57:10.836Z,9.57
2018-04-01T03:58:10.861Z,9.86
2018-04-01T03:59:10.884Z,9.85
2018-04-01T04:00:10.903Z,9.91
2018-04-01T04:01:10.917Z,10.03
2018-04-01T04:02:10.935Z,9.94
2018-04-01T04:03:10.950Z,9.64
2018-04-01T04:04:10.967Z,9.66
2018-04-01T04:05:10.983Z,9.76
2018-04-01T04:06:11.006Z,9.97
2018-04-01T04:07:11.017Z,9.93
2018-04-01T04:08:11.037Z,9.89
2018-04-01T04:09:11.078Z,9.67
2018-04-01T04:10:11.089Z,9.71
2018-04-01T04:11:11.087Z,9.85
2018-04-01T04:12:11.115Z,9.83
2018-04-01T04:13:11.119Z,9.94
2018-04-01T04:14:11.139Z,9.75
2018-04-01T04:15:11.157Z,9.79
2018-04-01T04:16:11.167Z,9.82
2018-04-01T04:17:11.218Z,9.45
2018-04-01T04:18:11.201Z,9.70
2018-04-01T04:19:11.225Z,9.68
2018-04-01T04:20:11.268Z,9.89
2018-04-01T04:21:11.259Z,10.04
2018-04-01T04:22:11.295Z,10.06
2018-04-01T04:23:11.292Z,9.83
2018-04-01T04:24:11.317Z,9.86
2018-04-01T04:25:11.325Z,9.68
2018-04-01T04:26:11.431Z,9.91
2018-04-01T04:27:11.372Z,9.83
2018-04-01T04:28:11.423Z,9.83
2018-04-01T04:29:11.396Z,9.78
2018-04-01T04:30:11.417Z,9.91
2018-04-01T04:31:11.437Z,9.86
2018-04-01T04:32:11.446Z,9.82
2018-04-01T04:33:11.464Z,9.39
2018-04-01T04:34:11.512Z,9.49
2018-04-01T04:35:11.500Z,9.67
2018-04-01T04:36:11.521Z,9.81
2018-04-01T04:37:11.537Z,9.68
2018-04-01T04:38:11.547Z,9.63
2018-04-01T04:39:11.575Z,9.81
2018-04-01T04:40:11.585Z,9.63
2018-04-01T04:41:11.601Z,9.68
2018-04-01T04:42:11.618Z,9.70
2018-04-01T04:43:11.636Z,9.75
2018-04-01T04:44:11.660Z,9.56
2018-04-01T04:45:11.672Z,9.71
2018-04-01T04:46:11.694Z,9.76
2018-04-01T04:47:11.711Z,9.81
2018-04-01T04:48:11.726Z,9.91
2018-04-01T04:49:11.738Z,9.70
2018-04-01T04:50:11.756Z,9.61
2018-04-01T04:51:11.786Z,9.81
2018-04-01T04:52:11.792Z,9.83
2018-04-01T04:53:11.813Z,9.86
2018-04-01T04:54:11.826Z,9.73
2018-04-01T04:55:11.849Z,9.50
2018-04-01T04:56:11.861Z,9.79
2018-04-01T04:57:11.877Z,9.66
2018-04-01T04:58:11.898Z,9.82
2018-04-01T04:59:11.915Z,9.81
2018-04-01T05:00:11.928Z,9.83
2018-04-01T05:01:11.945Z,9.82
2018-04-01T05:02:11.968Z,9.64
2018-04-01T05:03:11.982Z,9.57
2018-04-01T05:04:12.007Z,9.49
2018-04-01T05:05:12.019Z,9.67
2018-04-01T05:06:12.091Z,9.63
2018-04-01T05:07:12.054Z,9.58
2018-04-01T05:08:12.077Z,9.61
2018-04-01T05:09:12.088Z,9.48
2018-04-01T05:10:12.103Z,9.78
2018-04-01T05:11:12.130Z,9.40
2018-04-01T05:12:12.137Z,9.35
2018-04-01T05:13:12.155Z,9.32
2018-04-01T05:14:12.169Z,9.24
2018-04-01T05:15:12.198Z,9.04
2018-04-01T05:16:12.205Z,9.25
2018-04-01T05:17:12.229Z,9.31
2018-04-01T05:18:12.266Z,9.45
2018-04-01T05:19:12.255Z,9.57
2018-04-01T05:20:12.273Z,9.42
2018-04-01T05:21:12.298Z,9.63
2018-04-01T05:22:12.326Z,9.73
2018-04-01T05:23:12.329Z,9.53
2018-04-01T05:24:12.344Z,9.70
2018-04-01T05:25:12.365Z,9.71
2018-04-01T05:26:12.376Z,9.60
2018-04-01T05:27:12.396Z,9.70
2018-04-01T05:28:12.415Z,9.61
2018-04-01T05:29:12.431Z,9.68
2018-04-01T05:30:12.448Z,9.82
2018-04-01T05:31:12.467Z,9.66
2018-04-01T05:32:12.496Z,9.73
2018-04-01T05:33:12.506Z,9.85
2018-04-01T05:34:12.521Z,9.78
2018-04-01T05:35:12.661Z,9.49
2018-04-01T05:36:12.556Z,9.53
2018-04-01T05:37:12.567Z,9.34
2018-04-01T05:38:12.589Z,9.32
2018-04-01T05:39:12.608Z,9.70
2018-04-01T05:40:12.621Z,9.75
2018-04-01T05:41:12.641Z,9.70
2018-04-01T05:42:12.656Z,9.50
2018-04-01T05:43:12.682Z,9.25
2018-04-01T05:44:12.717Z,9.21
2018-04-01T05:45:12.704Z,9.46
2018-04-01T05:46:12.756Z,9.78
2018-04-01T05:47:12.747Z,9.50
2018-04-01T05:48:12.760Z,9.49
2018-04-01T05:49:12.772Z,9.52
2018-04-01T05:50:12.791Z,9.39
2018-04-01T05:51:12.810Z,9.38
2018-04-01T05:52:12.838Z,9.24
2018-04-01T05:53:12.846Z,9.48
2018-04-01T05:54:12.868Z,9.58
2018-04-01T05:55:12.881Z,9.75
2018-04-01T05:56:12.897Z,9.58
2018-04-01T05:57:12.912Z,9.70
2018-04-01T05:58:12.930Z,9.32
2018-04-01T05:59:12.950Z,9.42
2018-04-01T06:00:12.968Z,9.27
2018-04-01T06:01:12.981Z,9.32
2018-04-01T06:02:13.005Z,9.49
2018-04-01T06:03:13.024Z,9.40
2018-04-01T06:04:13.036Z,9.71
2018-04-01T06:05:13.053Z,9.70
2018-04-01T06:06:13.071Z,9.70
2018-04-01T06:07:13.088Z,9.63
2018-04-01T06:08:13.101Z,9.61
2018-04-01T06:09:13.120Z,9.53
2018-04-01T06:10:13.140Z,9.64
2018-04-01T06:11:13.170Z,9.71
2018-04-01T06:12:13.257Z,9.70
2018-04-01T06:13:13.187Z,9.67
2018-04-01T06:14:13.218Z,9.46
2018-04-01T06:15:13.224Z,9.63
2018-04-01T06:16:13.242Z,9.67
2018-04-01T06:17:13.258Z,9.78
2018-04-01T06:18:13.277Z,9.96
2018-04-01T06:19:13.298Z,9.89
2018-04-01T06:20:13.313Z,9.85
2018-04-01T06:21:13.332Z,9.66
2018-04-01T06:22:13.346Z,9.71
2018-04-01T06:23:13.359Z,9.58
2018-04-01T06:24:13.394Z,9.25
2018-04-01T06:25:13.398Z,9.38
2018-04-01T06:26:13.414Z,9.32
2018-04-01T06:27:13.435Z,9.63
2018-04-01T06:28:13.453Z,9.38
2018-04-01T06:29:13.481Z,9.42
2018-04-01T06:30:13.480Z,9.40
2018-04-01T06:31:13.497Z,9.60
2018-04-01T06:32:13.524Z,9.78
2018-04-01T06:33:13.546Z,9.83
2018-04-01T06:34:13.552Z,9.75
2018-04-01T06:35:13.571Z,9.99
2018-04-01T06:36:13.609Z,9.86
2018-04-01T06:37:13.612Z,9.71
2018-04-01T06:38:13.626Z,9.60
2018-04-01T06:39:13.649Z,9.64
2018-04-01T06:40:13.675Z,9.76
2018-04-01T06:41:13.681Z,9.81
2018-04-01T06:42:13.701Z,9.60
2018-04-01T06:43:13.726Z,9.78
2018-04-01T06:44:13.752Z,9.82
2018-04-01T06:45:13.745Z,9.45
2018-04-01T06:46:13.765Z,9.50
2018-04-01T06:47:13.777Z,9.67
2018-04-01T06:48:13.807Z,9.75
2018-04-01T06:49:13.813Z,9.75
2018-04-01T06:50:13.836Z,9.49
2018-04-01T06:51:13.852Z,9.45
2018-04-01T06:52:13.866Z,9.73
2018-04-01T06:53:13.887Z,9.86
2018-04-01T06:54:13.906Z,9.52
2018-04-01T06:55:13.918Z,9.49
2018-04-01T06:56:13.934Z,9.50
2018-04-01T06:57:13.950Z,9.45
2018-04-01T06:58:14.139Z,9.67
2018-04-01T06:59:13.998Z,9.58
2018-04-01T07:00:14.007Z,9.64
2018-04-01T07:01:14.021Z,9.64
2018-04-01T07:02:14.045Z,9.73
2018-04-01T07:03:14.057Z,9.97
2018-04-01T07:04:14.080Z,9.73
2018-04-01T07:05:14.090Z,9.82
2018-04-01T07:06:14.111Z,10.00
2018-04-01T07:07:14.122Z,9.70
2018-04-01T07:08:14.148Z,9.48
2018-04-01T07:09:14.162Z,9.68
2018-04-01T07:10:14.180Z,9.70
2018-04-01T07:11:14.190Z,9.78
2018-04-01T07:12:14.342Z,9.96
2018-04-01T07:13:14.230Z,9.91
2018-04-01T07:14:14.245Z,9.78
2018-04-01T07:15:14.266Z,9.70
2018-04-01T07:16:14.281Z,9.58
2018-04-01T07:17:14.298Z,9.60
2018-04-01T07:18:14.320Z,9.49
2018-04-01T07:19:14.332Z,9.68
2018-04-01T07:20:14.356Z,9.66
2018-04-01T07:21:14.367Z,9.70
2018-04-01T07:22:14.382Z,9.76
2018-04-01T07:23:14.402Z,9.81
2018-04-01T07:24:14.425Z,9.45
2018-04-01T07:25:14.436Z,9.78
2018-04-01T07:26:14.453Z,9.76
2018-04-01T07:27:14.477Z,9.82
2018-04-01T07:28:14.489Z,9.61
2018-04-01T07:29:14.505Z,9.81
2018-04-01T07:30:14.555Z,9.66
2018-04-01T07:31:14.544Z,9.91
2018-04-01T07:32:14.571Z,10.04
2018-04-01T07:33:14.576Z,10.10
2018-04-01T07:34:14.594Z,9.91
2018-04-01T07:35:14.613Z,9.91
2018-04-01T07:36:14.636Z,9.89
2018-04-01T07:37:14.650Z,9.81
2018-04-01T07:38:14.664Z,9.91
2018-04-01T07:39:14.679Z,9.64
2018-04-01T07:40:14.697Z,9.68
2018-04-01T07:41:14.818Z,9.82
2018-04-01T07:42:14.735Z,9.61
2018-04-01T07:43:14.749Z,9.49
2018-04-01T07:44:14.767Z,9.58
2018-04-01T07:45:14.790Z,9.38
2018-04-01T07:46:14.812Z,9.35
2018-04-01T07:47:14.822Z,9.46
2018-04-01T07:48:14.846Z,9.45
2018-04-01T07:49:14.876Z,9.48
2018-04-01T07:50:14.877Z,9.25
2018-04-01T07:51:14.891Z,9.32
2018-04-01T07:52:14.909Z,9.35
2018-04-01T07:53:14.923Z,9.38
2018-04-01T07:54:14.939Z,9.34
2018-04-01T07:55:14.960Z,9.39
2018-04-01T07:56:14.981Z,9.34
2018-04-01T07:57:14.991Z,9.27
2018-04-01T07:58:15.008Z,9.43
2018-04-01T07:59:15.022Z,9.40
2018-04-01T08:00:15.040Z,9.35
2018-04-01T08:01:15.131Z,9.32
2018-04-01T08:02:15.068Z,9.30
2018-04-01T08:03:15.086Z,9.02
2018-04-01T08:04:15.101Z,9.24
2018-04-01T08:05:15.121Z,9.30
2018-04-01T08:06:15.193Z,9.45
2018-04-01T08:07:15.187Z,9.39
2018-04-01T08:08:15.169Z,9.38
2018-04-01T08:09:15.185Z,9.48
2018-04-01T08:10:15.202Z,9.49
2018-04-01T08:11:15.218Z,9.45
2018-04-01T08:12:15.244Z,9.32
2018-04-01T08:13:15.265Z,9.50
2018-04-01T08:14:15.266Z,9.56
2018-04-01T08:15:15.291Z,9.68
2018-04-01T08:16:15.306Z,9.42
2018-04-01T08:17:15.322Z,9.40
2018-04-01T08:18:15.336Z,9.58
2018-04-01T08:19:15.352Z,9.64
2018-04-01T08:20:15.379Z,9.35
2018-04-01T08:21:15.384Z,9.64
2018-04-01T08:22:15.403Z,9.66
2018-04-01T08:23:15.438Z,9.82
2018-04-01T08:24:15.437Z,9.82
2018-04-01T08:25:15.611Z,9.68
2018-04-01T08:26:15.465Z,9.70
2018-04-01T08:27:15.498Z,9.83
2018-04-01T08:28:15.502Z,9.79
2018-04-01T08:29:15.516Z,9.71
2018-04-01T08:30:15.530Z,9.78
2018-04-01T08:31:15.556Z,9.75
2018-04-01T08:32:15.580Z,9.34
2018-04-01T08:33:15.585Z,9.49
2018-04-01T08:34:15.625Z,9.42
2018-04-01T08:35:15.618Z,9.66
2018-04-01T08:36:15.635Z,9.58
2018-04-01T08:37:15.649Z,9.76
2018-04-01T08:38:15.684Z,9.52
2018-04-01T08:39:15.701Z,9.64
2018-04-01T08:40:15.708Z,9.78
2018-04-01T08:41:15.717Z,9.64
2018-04-01T08:42:15.737Z,9.46
2018-04-01T08:43:15.754Z,9.35
2018-04-01T08:44:15.769Z,9.30
2018-04-01T08:45:15.791Z,9.21
2018-04-01T08:46:15.808Z,9.05
2018-04-01T08:47:15.823Z,8.96
2018-04-01T08:48:15.837Z,9.38
2018-04-01T08:49:15.856Z,9.25
2018-04-01T08:50:15.878Z,9.49
2018-04-01T08:51:15.897Z,9.34
2018-04-01T08:52:15.919Z,9.78
2018-04-01T08:53:15.986Z,9.71
2018-04-01T08:54:15.943Z,9.64
2018-04-01T08:55:15.959Z,9.68
2018-04-01T08:56:15.986Z,9.53
2018-04-01T08:57:15.993Z,9.60
2018-04-01T08:58:16.018Z,9.63
2018-04-01T08:59:16.033Z,9.73
2018-04-01T09:00:16.077Z,9.60
2018-04-01T09:01:16.061Z,9.82
2018-04-01T09:02:16.084Z,9.58
2018-04-01T09:03:16.106Z,9.25
2018-04-01T09:04:16.121Z,9.34
2018-04-01T09:05:16.139Z,9.67
2018-04-01T09:06:16.157Z,9.49
2018-04-01T09:07:16.168Z,9.67
2018-04-01T09:08:16.179Z,9.78
2018-04-01T09:09:16.208Z,9.81
2018-04-01T09:10:16.238Z,9.82
2018-04-01T09:11:16.236Z,9.53
2018-04-01T09:12:16.251Z,10.03
2018-04-01T09:13:16.276Z,9.81
2018-04-01T09:14:16.283Z,9.68
2018-04-01T09:15:16.304Z,9.79
2018-04-01T09:16:16.328Z,10.06
2018-04-01T09:17:16.360Z,9.93
2018-04-01T09:18:16.374Z,9.71
2018-04-01T09:19:16.373Z,9.70
2018-04-01T09:20:16.393Z,9.68
2018-04-01T09:21:16.418Z,9.71
2018-04-01T09:22:16.487Z,9.93
2018-04-01T09:23:16.443Z,9.99
2018-04-01T09:24:16.460Z,10.10
2018-04-01T09:25:16.480Z,10.10
2018-04-01T09:26:16.508Z,10.03
2018-04-01T09:27:16.518Z,9.93
2018-04-01T09:28:16.531Z,10.19
2018-04-01T09:29:16.544Z,10.03
2018-04-01T09:30:16.560Z,10.19
2018-04-01T09:31:16.587Z,10.25
2018-04-01T09:32:16.598Z,10.28
2018-04-01T09:33:16.614Z,10.36
2018-04-01T09:34:16.636Z,10.18
2018-04-01T09:35:16.652Z,9.89
2018-04-01T09:36:16.674Z,9.91
2018-04-01T09:37:16.686Z,9.91
2018-04-01T09:38:16.733Z,10.06
2018-04-01T09:39:16.729Z,10.18
2018-04-01T09:40:16.759Z,10.17
2018-04-01T09:41:16.755Z,9.91
2018-04-01T09:42:16.781Z,9.97
2018-04-01T09:43:16.847Z,9.78
2018-04-01T09:44:16.808Z,9.85
2018-04-01T09:45:16.824Z,9.68
2018-04-01T09:46:16.837Z,9.60
2018-04-01T09:47:16.857Z,9.31
2018-04-01T09:48:16.875Z,8.86
2018-04-01T09:49:16.889Z,8.91
2018-04-01T09:50:16.917Z,8.84
2018-04-01T09:51:16.925Z,8.33
2018-04-01T09:52:16.940Z,8.28
2018-04-01T09:53:16.962Z,8.57
2018-04-01T09:54:16.983Z,7.94
2018-04-01T09:55:16.994Z,8.07
2018-04-01T09:56:17.031Z,7.81
2018-04-01T09:57:17.032Z,7.85
2018-04-01T09:58:17.055Z,7.58
2018-04-01T09:59:17.067Z,7.92
2018-04-01T10:00:17.084Z,8.28
2018-04-01T10:01:17.095Z,8.22
2018-04-01T10:02:17.140Z,8.40
2018-04-01T10:03:17.135Z,8.60
2018-04-01T10:04:17.150Z,8.72
2018-04-01T10:05:17.163Z,8.63
2018-04-01T10:06:17.193Z,8.48
2018-04-01T10:07:17.196Z,8.66
2018-04-01T10:08:17.213Z,9.12
2018-04-01T10:09:17.229Z,8.72
2018-04-01T10:10:17.246Z,8.68
2018-04-01T10:11:17.265Z,8.87
2018-04-01T10:12:17.327Z,8.91
2018-04-01T10:13:17.332Z,8.69
2018-04-01T10:14:17.325Z,8.86
2018-04-01T10:15:17.330Z,8.68
2018-04-01T10:16:17.356Z,9.05
2018-04-01T10:17:17.375Z,8.91
2018-04-01T10:18:17.379Z,8.97
2018-04-01T10:19:17.405Z,9.18
2018-04-01T10:20:17.466Z,9.24
2018-04-01T10:21:17.430Z,9.23
2018-04-01T10:22:17.451Z,9.15
2018-04-01T10:23:17.465Z,9.32
2018-04-01T10:24:17.490Z,9.24
2018-04-01T10:25:17.504Z,9.20
2018-04-01T10:26:17.512Z,9.32
2018-04-01T10:27:17.590Z,9.46
2018-04-01T10:28:17.556Z,9.35
2018-04-01T10:29:17.562Z,9.46
2018-04-01T10:30:17.593Z,9.32
2018-04-01T10:31:17.598Z,9.28
2018-04-01T10:32:17.627Z,9.25
2018-04-01T10:33:17.635Z,9.32
2018-04-01T10:34:17.651Z,9.58
2018-04-01T10:35:17.672Z,9.20
2018-04-01T10:36:17.687Z,9.32
2018-04-01T10:37:17.696Z,9.46
2018-04-01T10:38:17.712Z,9.66
2018-04-01T10:39:17.735Z,9.78
2018-04-01T10:40:17.749Z,9.73
2018-04-01T10:41:17.769Z,9.64
2018-04-01T10:42:17.784Z,9.73
2018-04-01T10:43:17.850Z,9.68
2018-04-01T10:44:17.822Z,9.50
2018-04-01T10:45:17.835Z,9.71
2018-04-01T10:46:17.900Z,9.79
2018-04-01T10:47:17.869Z,9.91
2018-04-01T10:48:17.884Z,9.73
2018-04-01T10:49:17.898Z,9.83
2018-04-01T10:50:17.915Z,9.48
2018-04-01T10:51:17.937Z,9.83
2018-04-01T10:52:17.950Z,9.91
2018-04-01T10:53:17.965Z,9.91
2018-04-01T10:54:17.996Z,9.86
2018-04-01T10:55:18.002Z,9.78
2018-04-01T10:56:18.030Z,9.64
2018-04-01T10:57:18.037Z,9.61
2018-04-01T10:58:18.064Z,9.61
2018-04-01T10:59:18.070Z,9.81
2018-04-01T11:00:18.086Z,9.86
2018-04-01T11:01:18.104Z,9.49
2018-04-01T11:02:18.124Z,9.68
2018-04-01T11:03:18.163Z,9.99
2018-04-01T11:04:18.157Z,9.67
2018-04-01T11:05:18.173Z,9.49
2018-04-01T11:06:18.190Z,9.91
2018-04-01T11:07:18.204Z,10.14
2018-04-01T11:08:18.231Z,9.83
2018-04-01T11:09:18.244Z,10.10
2018-04-01T11:10:18.259Z,9.94
2018-04-01T11:11:18.280Z,10.06
2018-04-01T11:12:18.293Z,10.01
2018-04-01T11:13:18.319Z,10.07
2018-04-01T11:14:18.334Z,9.94
2018-04-01T11:15:18.360Z,9.99
2018-04-01T11:16:18.365Z,10.17
2018-04-01T11:17:18.381Z,9.78
2018-04-01T11:18:18.401Z,9.76
2018-04-01T11:19:18.414Z,9.63
2018-04-01T11:20:18.433Z,9.78
2018-04-01T11:21:18.457Z,10.04
2018-04-01T11:22:18.465Z,9.91
2018-04-01T11:23:18.494Z,10.10
2018-04-01T11:24:18.505Z,10.19
2018-04-01T11:25:18.527Z,9.73
2018-04-01T11:26:18.542Z,10.00
2018-04-01T11:27:18.555Z,9.94
2018-04-01T11:28:18.661Z,10.12
2018-04-01T11:29:18.594Z,10.03
2018-04-01T11:30:18.608Z,10.17
2018-04-01T11:31:18.650Z,10.10
2018-04-01T11:32:18.645Z,10.18
2018-04-01T11:33:18.668Z,10.37
2018-04-01T11:34:18.682Z,10.37
2018-04-01T11:35:18.698Z,10.34
2018-04-01T11:36:18.711Z,9.99
2018-04-01T11:37:18.737Z,10.07
2018-04-01T11:38:18.752Z,10.26
2018-04-01T11:39:18.762Z,10.10
2018-04-01T11:40:18.787Z,10.18
2018-04-01T11:41:18.807Z,10.33
2018-04-01T11:42:18.828Z,10.33
2018-04-01T11:43:18.836Z,10.21
2018-04-01T11:44:18.852Z,10.15
2018-04-01T11:45:18.876Z,10.24
2018-04-01T11:46:18.885Z,10.32
2018-04-01T11:47:18.909Z,10.55
2018-04-01T11:48:18.924Z,10.43
2018-04-01T11:49:18.945Z,9.93
2018-04-01T11:50:18.959Z,10.03
2018-04-01T11:51:18.978Z,9.91
2018-04-01T11:52:19.002Z,10.00
2018-04-01T11:53:19.012Z,10.09
2018-04-01T11:54:19.053Z,10.10
2018-04-01T11:55:19.056Z,9.99
2018-04-01T11:56:19.065Z,9.79
2018-04-01T11:57:19.079Z,9.88
2018-04-01T11:58:19.099Z,9.67
2018-04-01T11:59:19.119Z,9.88
2018-04-01T12:00:19.141Z,9.75
2018-04-01T12:01:19.148Z,9.66
2018-04-01T12:02:19.172Z,9.34
2018-04-01T12:03:19.183Z,9.31
2018-04-01T12:04:19.200Z,9.66
2018-04-01T12:05:19.221Z,9.42
2018-04-01T12:06:19.240Z,9.49
2018-04-01T12:07:19.254Z,9.35
2018-04-01T12:08:19.273Z,9.35
2018-04-01T12:09:19.293Z,9.82
2018-04-01T12:10:19.316Z,9.94
2018-04-01T12:11:19.330Z,9.70
2018-04-01T12:12:19.347Z,9.82
2018-04-01T12:13:19.365Z,9.71
2018-04-01T12:14:19.405Z,9.82
2018-04-01T12:15:19.394Z,9.94
2018-04-01T12:16:19.565Z,9.94
2018-04-01T12:17:19.434Z,9.96
2018-04-01T12:18:19.489Z,10.18
2018-04-01T12:19:19.484Z,10.25
2018-04-01T12:20:19.483Z,10.37
2018-04-01T12:21:19.506Z,10.01
2018-04-01T12:22:19.514Z,10.30
2018-04-01T12:23:19.534Z,10.15
2018-04-01T12:24:19.553Z,10.39
2018-04-01T12:25:19.577Z,10.70
2018-04-01T12:26:19.589Z,11.25
2018-04-01T12:27:19.608Z,10.95
2018-04-01T12:28:19.627Z,10.92
2018-04-01T12:29:19.679Z,10.84
2018-04-01T12:30:19.666Z,10.94
2018-04-01T12:31:19.678Z,11.14
2018-04-01T12:32:19.714Z,10.86
2018-04-01T12:33:19.724Z,10.66
2018-04-01T12:34:19.730Z,10.60
2018-04-01T12:35:19.785Z,10.44
2018-04-01T12:36:19.778Z,10.51
2018-04-01T12:37:19.837Z,10.65
2018-04-01T12:38:19.807Z,10.40
2018-04-01T12:39:19.818Z,9.94
2018-04-01T12:40:19.836Z,10.03
2018-04-01T12:41:19.857Z,10.14
2018-04-01T12:42:19.882Z,9.78
2018-04-01T12:43:19.895Z,9.82
2018-04-01T12:44:19.910Z,9.88
2018-04-01T12:45:19.942Z,10.24
2018-04-01T12:46:19.986Z,10.12
2018-04-01T12:47:19.985Z,10.19
2018-04-01T12:48:19.990Z,10.33
2018-04-01T12:49:20.005Z,9.97
2018-04-01T12:50:20.020Z,10.10
2018-04-01T12:51:20.040Z,10.03
2018-04-01T12:52:20.057Z,9.96
2018-04-01T12:53:20.076Z,10.30
2018-04-01T12:54:20.090Z,10.03
2018-04-01T12:55:20.108Z,9.85
2018-04-01T12:56:20.133Z,9.81
2018-04-01T12:57:20.139Z,9.94
2018-04-01T12:58:20.163Z,10.21
2018-04-01T12:59:20.176Z,10.28
2018-04-01T13:00:20.198Z,10.47
2018-04-01T13:01:20.217Z,10.39
2018-04-01T13:02:20.232Z,10.26
2018-04-01T13:03:20.263Z,10.12
2018-04-01T13:04:20.270Z,10.39
2018-04-01T13:05:20.282Z,10.22
2018-04-01T13:06:20.306Z,10.32
2018-04-01T13:07:20.320Z,10.56
2018-04-01T13:08:20.338Z,10.43
2018-04-01T13:09:20.361Z,10.59
2018-04-01T13:10:20.387Z,10.55